St Pierre — FIDX — position and weather

sailwx.info

Track history (hours):
 
Tides and Currents Weather Stations Pressure Air Temp Water Temp Dewpoint Dewpoint Depression Visibility Wind Speed Wind Dir Waves Ship Positions

St Pierre

Last reported at 2017-Jan-23 06:33 UTC. Time now 2017-Jan-23 06:36 UTC.
Position N 47°12' W 001°37'.

Length 84 m; draft 4.5 m.

Type: Cargo ship. MMSI: 228024800.

Date/timePositionNaut miles runAvg speedWind from/ knotsBaromVisibWave heightAir tempDewpointWater temp
2017-Jan-23 06:33N 47°12' W 001°37'0 0.0
2017-Jan-23 05:33N 47°12' W 001°37'0 0.0
2017-Jan-23 04:33N 47°12' W 001°37'0 0.0
2017-Jan-23 03:32N 47°12' W 001°37'0 0.0
2017-Jan-23 02:33N 47°12' W 001°37'0 0.0
2017-Jan-23 01:33N 47°12' W 001°37'0 0.0
2017-Jan-23 00:33N 47°12' W 001°37'0 0.0
2017-Jan-22 23:33N 47°12' W 001°37'0 0.0
2017-Jan-22 22:33N 47°12' W 001°37'0 0.0
2017-Jan-22 21:32N 47°12' W 001°37'0 0.0
2017-Jan-22 20:33N 47°12' W 001°37'0 0.0
2017-Jan-22 19:33N 47°12' W 001°37'0 0.0
2017-Jan-22 18:33N 47°12' W 001°37'0 0.0
2017-Jan-22 17:33N 47°12' W 001°37'0 0.0
2017-Jan-22 16:31N 47°12' W 001°37'0 0.0
2017-Jan-22 15:21N 47°12' W 001°37'0 0.0
2017-Jan-22 14:28N 47°12' W 001°37'0 0.0
2017-Jan-22 13:33N 47°12' W 001°37'0 0.0
2017-Jan-22 12:33N 47°12' W 001°37'0 0.0
2017-Jan-22 11:33N 47°12' W 001°37'0 0.0
2017-Jan-22 10:33N 47°12' W 001°37'0 0.0
2017-Jan-22 09:33N 47°12' W 001°37'0 0.0
2017-Jan-22 08:33N 47°12' W 001°37'0 0.0
2017-Jan-22 07:33N 47°12' W 001°37'0 0.0
2017-Jan-22 06:33N 47°12' W 001°37'0 0.0
2017-Jan-22 05:33N 47°12' W 001°37'0 0.0
2017-Jan-22 04:33N 47°12' W 001°37'0 0.0
2017-Jan-22 03:33N 47°12' W 001°37'0 0.0
2017-Jan-22 02:33N 47°12' W 001°37'0 0.0
2017-Jan-22 01:33N 47°12' W 001°37'0 0.0
2017-Jan-22 00:32N 47°12' W 001°37'0 0.0
2017-Jan-21 23:33N 47°12' W 001°37'0 0.0
2017-Jan-21 22:33N 47°12' W 001°37'0 0.0
2017-Jan-21 21:31N 47°12' W 001°37'0 0.0
2017-Jan-21 20:33N 47°12' W 001°37'0 0.0
2017-Jan-21 19:33N 47°12' W 001°37'0 0.0
2017-Jan-21 18:33N 47°12' W 001°37'0 0.0
2017-Jan-21 17:31N 47°12' W 001°37'0 0.0
2017-Jan-21 16:33N 47°12' W 001°37'0 0.0
2017-Jan-21 15:33N 47°12' W 001°37'0 0.0
2017-Jan-21 14:33N 47°12' W 001°37'0 0.0
2017-Jan-21 13:33N 47°12' W 001°37'0 0.0
2017-Jan-21 12:33N 47°12' W 001°37'0 0.0
2017-Jan-21 11:33N 47°12' W 001°37'0 0.0
2017-Jan-21 10:33N 47°12' W 001°37'0 0.0
2017-Jan-21 09:33N 47°12' W 001°37'0 0.0
2017-Jan-21 08:33N 47°12' W 001°37'0 0.0
2017-Jan-21 07:33N 47°12' W 001°37'0 0.0
2017-Jan-21 06:33N 47°12' W 001°37'0 0.0
2017-Jan-21 05:33N 47°12' W 001°37'0 0.0
2017-Jan-21 04:33N 47°12' W 001°37'0 0.0
2017-Jan-21 03:33N 47°12' W 001°37'0 0.0
2017-Jan-21 02:33N 47°12' W 001°37'0 0.0
2017-Jan-21 01:33N 47°12' W 001°37'0 0.0
2017-Jan-21 00:33N 47°12' W 001°37'0 0.0
2017-Jan-20 23:33N 47°12' W 001°37'0 0.0
2017-Jan-20 22:33N 47°12' W 001°37'1 0.8
2017-Jan-20 21:33N 47°12' W 001°38'0 0.0
2017-Jan-20 20:33N 47°12' W 001°38'3 3.0
2017-Jan-20 19:33N 47°12' W 001°42'1110.8
2017-Jan-20 18:33N 47°17' W 001°57'10 9.9
2017-Jan-20 17:33N 47°16' W 002°11'10 9.9
2017-Jan-20 16:33N 47°08' W 002°20'4 3.8
2017-Jan-20 15:33N 47°05' W 002°21'0 0.1
2017-Jan-20 14:32N 47°05' W 002°21'0 0.1
2017-Jan-20 13:32N 47°05' W 002°21'3 2.6
2017-Jan-20 12:33N 47°07' W 002°20'1210.9
2017-Jan-20 11:25N 47°17' W 002°10'911.0
2017-Jan-20 10:33N 47°17' W 001°56'13 9.4
2017-Jan-20 09:09N 47°12' W 001°38'0 0.0
2017-Jan-20 08:30N 47°12' W 001°38'0 0.0
2017-Jan-20 06:29N 47°12' W 001°38'0 0.0
2017-Jan-20 05:31N 47°12' W 001°38'0 0.0
2017-Jan-20 04:32N 47°12' W 001°38'0 0.0
2017-Jan-20 03:33N 47°12' W 001°38'0 0.0
2017-Jan-20 02:33N 47°12' W 001°38'0 0.0
2017-Jan-20 01:28N 47°12' W 001°38'0 0.0
2017-Jan-20 00:31N 47°12' W 001°38'0 0.0
2017-Jan-19 23:33N 47°12' W 001°38'0 0.0
2017-Jan-19 22:33N 47°12' W 001°38'0 0.0
2017-Jan-19 21:33N 47°12' W 001°38'0 0.0
2017-Jan-19 20:33N 47°12' W 001°38'0 0.0
2017-Jan-19 19:32N 47°12' W 001°38'9 8.9
2017-Jan-19 18:33N 47°14' W 001°50'1110.9
2017-Jan-19 17:33N 47°18' W 002°05'10 9.9
2017-Jan-19 16:33N 47°12' W 002°17'8 8.1
2017-Jan-19 15:33N 47°05' W 002°22'0 0.2
2017-Jan-19 14:34N 47°05' W 002°21'0 0.0
2017-Jan-19 13:33N 47°05' W 002°21'0 0.1
2017-Jan-19 12:33N 47°05' W 002°21'6 6.1
2017-Jan-19 11:33N 47°11' W 002°18'1111.1
2017-Jan-19 10:33N 47°18' W 002°06'1111.5
2017-Jan-19 09:33N 47°15' W 001°51'9 9.1
2017-Jan-19 08:33N 47°12' W 001°38'0 0.0
2017-Jan-19 07:32N 47°12' W 001°38'0 0.0
2017-Jan-19 06:33N 47°12' W 001°38'0 0.0
2017-Jan-19 05:33N 47°12' W 001°38'0 0.0
2017-Jan-19 04:33N 47°12' W 001°38'0 0.0
2017-Jan-19 03:33N 47°12' W 001°38'0 0.0
2017-Jan-19 02:33N 47°12' W 001°38'0 0.0
2017-Jan-19 01:33N 47°12' W 001°38'0 0.0
2017-Jan-19 00:33N 47°12' W 001°38'0 0.0
2017-Jan-18 23:33N 47°12' W 001°38'0 0.0
2017-Jan-18 22:33N 47°12' W 001°38'0 0.0
2017-Jan-18 21:33N 47°12' W 001°38'0 0.0
2017-Jan-18 20:33N 47°12' W 001°38'0 0.0
2017-Jan-18 19:33N 47°12' W 001°38'6 5.8
2017-Jan-18 18:33N 47°12' W 001°46'1211.7
2017-Jan-18 17:33N 47°18' W 002°02'1110.8
2017-Jan-18 16:33N 47°13' W 002°16'9 8.7
2017-Jan-18 15:31N 47°05' W 002°22'0 0.1
2017-Jan-18 14:32N 47°05' W 002°22'0 0.2
2017-Jan-18 13:33N 47°05' W 002°21'0 0.1
2017-Jan-18 12:33N 47°05' W 002°21'2 1.8
2017-Jan-18 11:25N 47°07' W 002°21'1011.5
2017-Jan-18 10:32N 47°15' W 002°13'1110.8
2017-Jan-18 09:33N 47°17' W 001°57'1010.3
2017-Jan-18 08:33N 47°12' W 001°43'4 3.9
2017-Jan-18 07:33N 47°12' W 001°38'0 0.0
2017-Jan-18 06:30N 47°12' W 001°38'0 0.0
2017-Jan-18 05:33N 47°12' W 001°38'0 0.0
2017-Jan-18 04:32N 47°12' W 001°38'0 0.0
2017-Jan-18 03:33N 47°12' W 001°38'0 0.0
2017-Jan-18 02:33N 47°12' W 001°38'0 0.0
2017-Jan-18 01:33N 47°12' W 001°38'0 0.0
2017-Jan-18 00:33N 47°12' W 001°38'0 0.0
2017-Jan-17 23:33N 47°12' W 001°38'0 0.0
2017-Jan-17 22:33N 47°12' W 001°38'0 0.0
2017-Jan-17 21:33N 47°12' W 001°38'0 0.0
2017-Jan-17 20:33N 47°12' W 001°38'4 4.1
2017-Jan-17 19:33N 47°12' W 001°44'1010.1
2017-Jan-17 18:33N 47°17' W 001°57'1111.0
2017-Jan-17 17:33N 47°15' W 002°13'1211.7
2017-Jan-17 16:33N 47°05' W 002°21'0 0.1
2017-Jan-17 15:29N 47°05' W 002°21'0 0.2
2017-Jan-17 14:26N 47°05' W 002°21'0 0.2
2017-Jan-17 13:32N 47°05' W 002°21'3 3.0
2017-Jan-17 12:30N 47°08' W 002°20'1314.0
2017-Jan-17 11:32N 47°18' W 002°07'1313.3
2017-Jan-17 10:33N 47°13' W 001°49'9 8.7
2017-Jan-17 09:33N 47°12' W 001°37'0 0.0
2017-Jan-17 08:33N 47°12' W 001°37'0 0.0
2017-Jan-17 07:31N 47°12' W 001°37'0 0.0
2017-Jan-17 06:30N 47°12' W 001°37'0 0.0
2017-Jan-17 05:33N 47°12' W 001°37'0 0.0
2017-Jan-17 04:33N 47°12' W 001°37'0 0.0
2017-Jan-17 03:33N 47°12' W 001°37'0 0.0
2017-Jan-17 02:33N 47°12' W 001°37'0 0.0
2017-Jan-17 01:33N 47°12' W 001°37'0 0.0
2017-Jan-17 00:29N 47°12' W 001°37'0 0.0
2017-Jan-16 23:31N 47°12' W 001°37'0 0.0
2017-Jan-16 22:33N 47°12' W 001°37'0 0.0
2017-Jan-16 21:28N 47°12' W 001°37'0 0.0
2017-Jan-16 20:31N 47°12' W 001°37'0 0.0
2017-Jan-16 19:33N 47°12' W 001°37'0 0.0
2017-Jan-16 18:33N 47°12' W 001°37'0 0.0
2017-Jan-16 17:33N 47°12' W 001°37'0 0.0
2017-Jan-16 16:33N 47°12' W 001°37'0 0.0
2017-Jan-16 15:33N 47°12' W 001°37'0 0.0
2017-Jan-15 22:20N 47°12' W 001°37'42 1.2
2017-Jan-14 10:27N 47°10' W 002°38'1112.2
2017-Jan-14 09:33N 47°16' W 002°52'1312.8
2017-Jan-14 08:33N 47°23' W 003°08'1312.7
2017-Jan-14 07:33N 47°34' W 003°17'1110.5
2017-Jan-14 06:33N 47°44' W 003°21'1 1.1
2017-Jan-14 05:33N 47°45' W 003°19'0 0.0
2017-Jan-14 04:33N 47°45' W 003°19'1 1.0
2017-Jan-14 03:33N 47°44' W 003°21'5 1.2
2017-Jan-13 23:33N 47°40' W 003°25'0 0.0
2017-Jan-13 22:33N 47°40' W 003°25'0 0.0
2017-Jan-13 21:33N 47°40' W 003°25'0 0.1
2017-Jan-13 20:33N 47°40' W 003°25'8 8.2
2017-Jan-13 19:33N 47°34' W 003°17'9 8.6
2017-Jan-13 18:33N 47°26' W 003°11'8 8.1
2017-Jan-13 17:33N 47°21' W 003°02'8 8.0
2017-Jan-13 16:33N 47°17' W 002°52'8 8.0
2017-Jan-13 15:33N 47°13' W 002°42'  
Track history (hours):
 
Tides and Currents Weather Stations Pressure Air Temp Water Temp Dewpoint Dewpoint Depression Visibility Wind Speed Wind Dir Waves Ship Positions

St Pierre

Last reported at 2017-Jan-23 06:33 UTC. Time now 2017-Jan-23 06:36 UTC.
Position N 47°12' W 001°37'.

Length 84 m; draft 4.5 m.

Type: Cargo ship. MMSI: 228024800.

Date/timePositionNaut miles runAvg speedWind from/ knotsBaromVisibWave heightAir tempDewpointWater temp
2017-Jan-23 06:33N 47°12' W 001°37'0 0.0
2017-Jan-23 05:33N 47°12' W 001°37'0 0.0
2017-Jan-23 04:33N 47°12' W 001°37'0 0.0
2017-Jan-23 03:32N 47°12' W 001°37'0 0.0
2017-Jan-23 02:33N 47°12' W 001°37'0 0.0
2017-Jan-23 01:33N 47°12' W 001°37'0 0.0
2017-Jan-23 00:33N 47°12' W 001°37'0 0.0
2017-Jan-22 23:33N 47°12' W 001°37'0 0.0
2017-Jan-22 22:33N 47°12' W 001°37'0 0.0
2017-Jan-22 21:32N 47°12' W 001°37'0 0.0
2017-Jan-22 20:33N 47°12' W 001°37'0 0.0
2017-Jan-22 19:33N 47°12' W 001°37'0 0.0
2017-Jan-22 18:33N 47°12' W 001°37'0 0.0
2017-Jan-22 17:33N 47°12' W 001°37'0 0.0
2017-Jan-22 16:31N 47°12' W 001°37'0 0.0
2017-Jan-22 15:21N 47°12' W 001°37'0 0.0
2017-Jan-22 14:28N 47°12' W 001°37'0 0.0
2017-Jan-22 13:33N 47°12' W 001°37'0 0.0
2017-Jan-22 12:33N 47°12' W 001°37'0 0.0
2017-Jan-22 11:33N 47°12' W 001°37'0 0.0
2017-Jan-22 10:33N 47°12' W 001°37'0 0.0
2017-Jan-22 09:33N 47°12' W 001°37'0 0.0
2017-Jan-22 08:33N 47°12' W 001°37'0 0.0
2017-Jan-22 07:33N 47°12' W 001°37'0 0.0
2017-Jan-22 06:33N 47°12' W 001°37'0 0.0
2017-Jan-22 05:33N 47°12' W 001°37'0 0.0
2017-Jan-22 04:33N 47°12' W 001°37'0 0.0
2017-Jan-22 03:33N 47°12' W 001°37'0 0.0
2017-Jan-22 02:33N 47°12' W 001°37'0 0.0
2017-Jan-22 01:33N 47°12' W 001°37'0 0.0
2017-Jan-22 00:32N 47°12' W 001°37'0 0.0
2017-Jan-21 23:33N 47°12' W 001°37'0 0.0
2017-Jan-21 22:33N 47°12' W 001°37'0 0.0
2017-Jan-21 21:31N 47°12' W 001°37'0 0.0
2017-Jan-21 20:33N 47°12' W 001°37'0 0.0
2017-Jan-21 19:33N 47°12' W 001°37'0 0.0
2017-Jan-21 18:33N 47°12' W 001°37'0 0.0
2017-Jan-21 17:31N 47°12' W 001°37'0 0.0
2017-Jan-21 16:33N 47°12' W 001°37'0 0.0
2017-Jan-21 15:33N 47°12' W 001°37'0 0.0
2017-Jan-21 14:33N 47°12' W 001°37'0 0.0
2017-Jan-21 13:33N 47°12' W 001°37'0 0.0
2017-Jan-21 12:33N 47°12' W 001°37'0 0.0
2017-Jan-21 11:33N 47°12' W 001°37'0 0.0
2017-Jan-21 10:33N 47°12' W 001°37'0 0.0
2017-Jan-21 09:33N 47°12' W 001°37'0 0.0
2017-Jan-21 08:33N 47°12' W 001°37'0 0.0
2017-Jan-21 07:33N 47°12' W 001°37'0 0.0
2017-Jan-21 06:33N 47°12' W 001°37'0 0.0
2017-Jan-21 05:33N 47°12' W 001°37'0 0.0
2017-Jan-21 04:33N 47°12' W 001°37'0 0.0
2017-Jan-21 03:33N 47°12' W 001°37'0 0.0
2017-Jan-21 02:33N 47°12' W 001°37'0 0.0
2017-Jan-21 01:33N 47°12' W 001°37'0 0.0
2017-Jan-21 00:33N 47°12' W 001°37'0 0.0
2017-Jan-20 23:33N 47°12' W 001°37'0 0.0
2017-Jan-20 22:33N 47°12' W 001°37'1 0.8
2017-Jan-20 21:33N 47°12' W 001°38'0 0.0
2017-Jan-20 20:33N 47°12' W 001°38'3 3.0
2017-Jan-20 19:33N 47°12' W 001°42'1110.8
2017-Jan-20 18:33N 47°17' W 001°57'10 9.9
2017-Jan-20 17:33N 47°16' W 002°11'10 9.9
2017-Jan-20 16:33N 47°08' W 002°20'4 3.8
2017-Jan-20 15:33N 47°05' W 002°21'0 0.1
2017-Jan-20 14:32N 47°05' W 002°21'0 0.1
2017-Jan-20 13:32N 47°05' W 002°21'3 2.6
2017-Jan-20 12:33N 47°07' W 002°20'1210.9
2017-Jan-20 11:25N 47°17' W 002°10'911.0
2017-Jan-20 10:33N 47°17' W 001°56'13 9.4
2017-Jan-20 09:09N 47°12' W 001°38'0 0.0
2017-Jan-20 08:30N 47°12' W 001°38'0 0.0
2017-Jan-20 06:29N 47°12' W 001°38'0 0.0
2017-Jan-20 05:31N 47°12' W 001°38'0 0.0
2017-Jan-20 04:32N 47°12' W 001°38'0 0.0
2017-Jan-20 03:33N 47°12' W 001°38'0 0.0
2017-Jan-20 02:33N 47°12' W 001°38'0 0.0
2017-Jan-20 01:28N 47°12' W 001°38'0 0.0
2017-Jan-20 00:31N 47°12' W 001°38'0 0.0
2017-Jan-19 23:33N 47°12' W 001°38'0 0.0
2017-Jan-19 22:33N 47°12' W 001°38'0 0.0
2017-Jan-19 21:33N 47°12' W 001°38'0 0.0
2017-Jan-19 20:33N 47°12' W 001°38'0 0.0
2017-Jan-19 19:32N 47°12' W 001°38'9 8.9
2017-Jan-19 18:33N 47°14' W 001°50'1110.9
2017-Jan-19 17:33N 47°18' W 002°05'10 9.9
2017-Jan-19 16:33N 47°12' W 002°17'8 8.1
2017-Jan-19 15:33N 47°05' W 002°22'0 0.2
2017-Jan-19 14:34N 47°05' W 002°21'0 0.0
2017-Jan-19 13:33N 47°05' W 002°21'0 0.1
2017-Jan-19 12:33N 47°05' W 002°21'6 6.1
2017-Jan-19 11:33N 47°11' W 002°18'1111.1
2017-Jan-19 10:33N 47°18' W 002°06'1111.5
2017-Jan-19 09:33N 47°15' W 001°51'9 9.1
2017-Jan-19 08:33N 47°12' W 001°38'0 0.0
2017-Jan-19 07:32N 47°12' W 001°38'0 0.0
2017-Jan-19 06:33N 47°12' W 001°38'0 0.0
2017-Jan-19 05:33N 47°12' W 001°38'0 0.0
2017-Jan-19 04:33N 47°12' W 001°38'0 0.0
2017-Jan-19 03:33N 47°12' W 001°38'0 0.0
2017-Jan-19 02:33N 47°12' W 001°38'0 0.0
2017-Jan-19 01:33N 47°12' W 001°38'0 0.0
2017-Jan-19 00:33N 47°12' W 001°38'0 0.0
2017-Jan-18 23:33N 47°12' W 001°38'0 0.0
2017-Jan-18 22:33N 47°12' W 001°38'0 0.0
2017-Jan-18 21:33N 47°12' W 001°38'0 0.0
2017-Jan-18 20:33N 47°12' W 001°38'0 0.0
2017-Jan-18 19:33N 47°12' W 001°38'6 5.8
2017-Jan-18 18:33N 47°12' W 001°46'1211.7
2017-Jan-18 17:33N 47°18' W 002°02'1110.8
2017-Jan-18 16:33N 47°13' W 002°16'9 8.7
2017-Jan-18 15:31N 47°05' W 002°22'0 0.1
2017-Jan-18 14:32N 47°05' W 002°22'0 0.2
2017-Jan-18 13:33N 47°05' W 002°21'0 0.1
2017-Jan-18 12:33N 47°05' W 002°21'2 1.8
2017-Jan-18 11:25N 47°07' W 002°21'1011.5
2017-Jan-18 10:32N 47°15' W 002°13'1110.8
2017-Jan-18 09:33N 47°17' W 001°57'1010.3
2017-Jan-18 08:33N 47°12' W 001°43'4 3.9
2017-Jan-18 07:33N 47°12' W 001°38'0 0.0
2017-Jan-18 06:30N 47°12' W 001°38'0 0.0
2017-Jan-18 05:33N 47°12' W 001°38'0 0.0
2017-Jan-18 04:32N 47°12' W 001°38'0 0.0
2017-Jan-18 03:33N 47°12' W 001°38'0 0.0
2017-Jan-18 02:33N 47°12' W 001°38'0 0.0
2017-Jan-18 01:33N 47°12' W 001°38'0 0.0
2017-Jan-18 00:33N 47°12' W 001°38'0 0.0
2017-Jan-17 23:33N 47°12' W 001°38'0 0.0
2017-Jan-17 22:33N 47°12' W 001°38'0 0.0
2017-Jan-17 21:33N 47°12' W 001°38'0 0.0
2017-Jan-17 20:33N 47°12' W 001°38'4 4.1
2017-Jan-17 19:33N 47°12' W 001°44'1010.1
2017-Jan-17 18:33N 47°17' W 001°57'1111.0
2017-Jan-17 17:33N 47°15' W 002°13'1211.7
2017-Jan-17 16:33N 47°05' W 002°21'0 0.1
2017-Jan-17 15:29N 47°05' W 002°21'0 0.2
2017-Jan-17 14:26N 47°05' W 002°21'0 0.2
2017-Jan-17 13:32N 47°05' W 002°21'3 3.0
2017-Jan-17 12:30N 47°08' W 002°20'1314.0
2017-Jan-17 11:32N 47°18' W 002°07'1313.3
2017-Jan-17 10:33N 47°13' W 001°49'9 8.7
2017-Jan-17 09:33N 47°12' W 001°37'0 0.0
2017-Jan-17 08:33N 47°12' W 001°37'0 0.0
2017-Jan-17 07:31N 47°12' W 001°37'0 0.0
2017-Jan-17 06:30N 47°12' W 001°37'0 0.0
2017-Jan-17 05:33N 47°12' W 001°37'0 0.0
2017-Jan-17 04:33N 47°12' W 001°37'0 0.0
2017-Jan-17 03:33N 47°12' W 001°37'0 0.0
2017-Jan-17 02:33N 47°12' W 001°37'0 0.0
2017-Jan-17 01:33N 47°12' W 001°37'0 0.0
2017-Jan-17 00:29N 47°12' W 001°37'0 0.0
2017-Jan-16 23:31N 47°12' W 001°37'0 0.0
2017-Jan-16 22:33N 47°12' W 001°37'0 0.0
2017-Jan-16 21:28N 47°12' W 001°37'0 0.0
2017-Jan-16 20:31N 47°12' W 001°37'0 0.0
2017-Jan-16 19:33N 47°12' W 001°37'0 0.0
2017-Jan-16 18:33N 47°12' W 001°37'0 0.0
2017-Jan-16 17:33N 47°12' W 001°37'0 0.0
2017-Jan-16 16:33N 47°12' W 001°37'0 0.0
2017-Jan-16 15:33N 47°12' W 001°37'0 0.0
2017-Jan-15 22:20N 47°12' W 001°37'42 1.2
2017-Jan-14 10:27N 47°10' W 002°38'1112.2
2017-Jan-14 09:33N 47°16' W 002°52'1312.8
2017-Jan-14 08:33N 47°23' W 003°08'1312.7
2017-Jan-14 07:33N 47°34' W 003°17'1110.5
2017-Jan-14 06:33N 47°44' W 003°21'1 1.1
2017-Jan-14 05:33N 47°45' W 003°19'0 0.0
2017-Jan-14 04:33N 47°45' W 003°19'1 1.0
2017-Jan-14 03:33N 47°44' W 003°21'5 1.2
2017-Jan-13 23:33N 47°40' W 003°25'0 0.0
2017-Jan-13 22:33N 47°40' W 003°25'0 0.0
2017-Jan-13 21:33N 47°40' W 003°25'0 0.1
2017-Jan-13 20:33N 47°40' W 003°25'8 8.2
2017-Jan-13 19:33N 47°34' W 003°17'9 8.6
2017-Jan-13 18:33N 47°26' W 003°11'8 8.1
2017-Jan-13 17:33N 47°21' W 003°02'8 8.0
2017-Jan-13 16:33N 47°17' W 002°52'8 8.0
2017-Jan-13 15:33N 47°13' W 002°42'  

Dump ship's entire track history